KMVN/MVN METAR and TAF weather

Enter ICAO airport designator
Station Type Date Time Source
KMVN METAR 2020/01/21 15:47 UTC NOAA

KMVN 211547Z AUTO 04003KT 8SM SCT007 M03/M04 A3068 RMK AO2 FZRANO


Station Type Date Time Source
KMVN Decoded METAR 2020/01/21 15:47 UTC NOAA

Mount Vernon, Mount Vernon Airport, IL, United States (KMVN) 38-19N 088-52W
Jan 21, 2020 - 10:47 AM EST / 2020.01.21 1547 UTC
Wind: from the NE (040 degrees) at 3 MPH (3 KT):0
Visibility: 8 mile(s):0
Sky conditions: partly cloudy
Temperature: 26 F (-3 C)
Dew Point: 24 F (-4 C)
Relative Humidity: 92%
Pressure (altimeter): 30.68 in. Hg (1038 hPa)
ob: KMVN 211547Z AUTO 04003KT 8SM SCT007 M03/M04 A3068 RMK AO2 FZRANO
cycle: 16

Station Type Date Time Source
KMVN TAF 2020/01/21 15:30 UTC NOAA

TAF
AMD KMVN 211529Z 2115/2212 33004KT P6SM SCT006
TEMPO 2115/2117 BKN006
FM211700 00000KT P6SM SCT250
FM220600 16005KT P6SM SCT250

Example: see airport list